• Join FlightAware (Why Join?)
  • Login
  • US Flag 
12:26AM EST


 

Airport Tracker/Info


-or-


 

Live Flight TrackerFlight Track Log ✈ RPA3253 ✈ 23-Jul-2013 ✈ KALB - KCLT

Flight Track Log - Related Links

Times and Time Zones

All times are in EDT time to prevent confusion due to time zone crossing. See the RPA3253 flight status page for this flight to view local times or setup timezone preferences in your user account.

Time Position Orientation Groundspeed Altitude Reporting Facility
EDT Latitude Longitude Course Direction KTS MPH feet Rate Location/Type
07:19PM 42.7694 -73.8089 180° South 134 154 1,300  Level Boston Center
07:20PM 42.8003 -73.8381 325° Northwest 185 213 2,300 2,460 Climbing Boston Center
07:22PM 42.4585 -74.1172 180° South  Level Estimated
07:22PM 42.9008 -73.9706 316° Northwest 278 320 8,200  Level Boston Center
07:23PM 42.3857 -74.1955 170° South  Level Estimated
07:23PM 42.9308 -74.0622 294° West 259 298 10,900  Level Boston Center
07:24PM 42.3129 -74.2737 180° South  Level Estimated
07:24PM 42.9206 -74.1808 263° West 290 334 13,200  Level Boston Center
07:25PM 42.8775 -74.2761 238° Southwest 320 368 15,200 2,160 Climbing Boston Center
07:26PM 42.7931 -74.3358 207° Southwest 321 369 17,600 2,280 Climbing Boston Center
07:27PM 42.7189 -74.2828 152° Southeast 284 327 19,800 1,860 Climbing Boston Center
07:28PM 42.6456 -74.1844 135° Southeast 304 350 21,400 1,680 Climbing Boston Center
07:29PM 42.5592 -74.1058 146° Southeast 333 383 23,200 1,680 Climbing Boston Center
07:30PM 42.4856 -73.9914 131° Southeast 375 432 24,800 1,440 Climbing Boston Center
07:31PM 42.4100 -73.8742 131° Southeast 391 450 26,100 1,080 Climbing Boston Center
07:32PM 42.3322 -73.7544 131° Southeast 412 474 27,000 420 Climbing Boston Center
07:33PM 42.2506 -73.6153 128° Southeast 433 498 27,000 360 Level Boston Center
07:34PM 42.1533 -73.5464 152° Southeast 404 465 27,800 900 Climbing Boston Center
07:35PM 42.0364 -73.5581 184° South 387 445 28,800 840 Climbing Boston Center
07:36PM 41.9217 -73.5617 181° South 400 460 29,500 840 Climbing Boston Center
07:37PM 41.8072 -73.5653 181° South 411 473 30,500 960 Climbing Boston Center
07:38PM 41.6944 -73.5717 182° South 411 473 31,500 960 Climbing Boston Center
07:39PM 41.5958 -73.6308 204° Southwest 392 451 32,500 900 Climbing Boston Center
07:40PM 41.5117 -73.7125 216° Southwest 380 437 33,400 660 Climbing Boston Center
07:41PM 41.4164 -73.8031 215° Southwest 396 456 34,000 240 Climbing New York Center
07:42PM 41.3181 -73.9008 217° Southwest 411 473 34,000  Level New York Center
07:43PM 41.2261 -73.9903 216° Southwest 416 479 34,000  Level New York Center
07:44PM 41.1642 -74.1225 238° Southwest 403 464 34,000  Level New York Center
07:45PM 41.0819 -74.2286 224° Southwest 415 478 34,000  Level New York Center
07:46PM 40.9994 -74.3369 225° Southwest 425 489 34,000  Level New York Center
07:47PM 40.9108 -74.4447 223° Southwest 430 495 34,000  Level New York Center
07:48PM 40.8261 -74.5528 224° Southwest 430 495 34,000  Level New York Center
07:49PM 40.7414 -74.6575 223° Southwest 425 489 34,000  Level New York Center
07:50PM 40.6586 -74.7650 225° Southwest 425 489 34,000  Level New York Center
07:51PM 40.5717 -74.8719 223° Southwest 425 489 34,000  Level New York Center
07:52PM 40.4889 -74.9761 224° Southwest 420 483 34,000  Level New York Center
07:53PM 40.4103 -75.0750 224° Southwest 425 489 34,000  Level New York Center
07:54PM 40.3250 -75.1786 223° Southwest 425 489 34,000  Level New York Center
07:55PM 40.2419 -75.2819 224° Southwest 420 483 34,000  Level New York Center
07:56PM 40.1567 -75.3850 223° Southwest 420 483 34,000  Level New York Center
07:57PM 40.0733 -75.4881 223° Southwest 420 483 34,000  Level New York Center
07:58PM 39.9858 -75.5933 223° Southwest 425 489 34,000  Level New York Center
07:59PM 39.9064 -75.6961 225° Southwest 419 482 34,000  Level New York Center
08:00PM 39.8350 -75.8100 231° Southwest 414 476 34,000  Level New York Center
08:01PM 39.7633 -75.9236 231° Southwest 409 471 34,000  Level New York Center
08:03PM 39.6228 -76.1439 230° Southwest 400 460 34,000  Level Washington Center
08:04PM 39.5533 -76.2536 231° Southwest 400 460 34,000  Level Washington Center
08:05PM 39.4797 -76.3633 229° Southwest 400 460 34,000  Level Washington Center
08:06PM 39.4083 -76.4725 230° Southwest 400 460 34,000  Level Washington Center
08:07PM 39.3322 -76.5897 230° Southwest 400 460 34,000 -420 Level Washington Center
08:08PM 39.2647 -76.6933 230° Southwest 400 460 33,200 -900 Descending Washington Center
08:09PM 39.2011 -76.7969 232° Southwest 394 453 32,200 -1,020 Descending Washington Center
08:10PM 39.1356 -76.9028 231° Southwest 389 448 31,200 -1,020 Descending Washington Center
08:11PM 39.1050 -77.0253 252° West 363 418 30,200 -660 Descending Washington Center
08:12PM 39.0867 -77.1506 259° West 363 418 30,000 -120 Descending Washington Center
08:13PM 39.0600 -77.2758 255° West 363 418 30,000  Level Washington Center
08:14PM 38.9736 -77.3406 210° Southwest 343 395 30,000  Level Washington Center
08:15PM 38.8689 -77.3753 194° South 346 398 30,000  Level Washington Center
08:16PM 38.7767 -77.4050 194° South 362 417 30,000  Level Washington Center
08:17PM 38.6719 -77.4397 195° South 380 437 30,000  Level Washington Center
08:18PM 38.5753 -77.4878 201° Southwest 387 445 30,000  Level Washington Center
08:19PM 38.4986 -77.5814 224° Southwest 372 428 30,000  Level Washington Center
08:20PM 38.4242 -77.6747 225° Southwest 377 434 30,000  Level Washington Center
08:21PM 38.3453 -77.7653 222° Southwest 377 434 30,000  Level Washington Center
08:22PM 38.2667 -77.8581 223° Southwest 382 440 30,000  Level Washington Center
08:23PM 38.1856 -77.9533 223° Southwest 382 440 30,000  Level Washington Center
08:24PM 38.1044 -78.0458 222° Southwest 387 445 30,000  Level Washington Center
08:25PM 38.0253 -78.1408 223° Southwest 387 445 30,000 -480 Level Washington Center
08:26PM 37.9478 -78.2514 228° Southwest 387 445 29,100  Descending Washington Center
08:27PM 37.8767 -78.3514 228° Southwest 387 445 30,000 -600 Climbing Washington Center
08:28PM 37.8161 -78.4439 230° Southwest 380 437 28,000 -1,020 Descending Washington Center
08:29PM 37.7469 -78.5436 229° Southwest 380 437 28,000  Level Washington Center
08:30PM 37.6756 -78.6433 228° Southwest 380 437 28,000  Level Washington Center
08:31PM 37.5997 -78.7503 228° Southwest 380 437 28,000 960 Level Washington Center
08:32PM 37.5347 -78.8419 228° Southwest 380 437 30,000  Climbing Washington Center
08:33PM 37.4567 -78.9536 229° Southwest 385 443 28,000 -1,020 Descending Washington Center
08:34PM 37.3828 -79.0550 227° Southwest 390 449 28,000  Level Washington Center
08:35PM 37.3175 -79.1486 229° Southwest 390 449 28,000  Level Washington Center
08:36PM 37.2436 -79.2444 226° Southwest 390 449 28,000  Level Washington Center
08:37PM 37.1494 -79.3233 214° Southwest 390 449 28,000  Level Washington Center
08:38PM 37.0553 -79.4019 214° Southwest 402 463 28,000  Level Washington Center
08:39PM 36.9650 -79.4781 214° Southwest 407 468 28,000  Level Washington Center
08:40PM 36.8603 -79.5611 212° Southwest 407 468 28,000  Level Washington Center
08:41PM 36.7658 -79.6392 214° Southwest 401 461 28,000  Level Washington Center
08:42PM 36.6692 -79.7197 214° Southwest 411 473 28,000  Level Washington Center
08:43PM 36.5528 -79.8108 212° Southwest 440 506 28,000  Level Atlanta Center
08:44PM 36.4472 -79.8939 212° Southwest 446 513 28,000 -720 Level Atlanta Center
08:45PM 36.3478 -79.9789 215° Southwest 446 513 26,600 -1,800 Descending Atlanta Center
08:46PM 36.2503 -80.0608 214° Southwest 446 513 24,400 -2,340 Descending Atlanta Center
08:47PM 36.1528 -80.1403 213° Southwest 409 471 22,000 -2,160 Descending Atlanta Center
08:48PM 36.0675 -80.2164 216° Southwest 394 453 20,100 -2,040 Descending Atlanta Center
08:49PM 35.9822 -80.2897 215° Southwest 389 448 18,000 -1,920 Descending Atlanta Center
08:50PM 35.8989 -80.3603 214° Southwest 384 442 16,300 -1,920 Descending Atlanta Center
08:51PM 35.8542 -80.4006 216° Southwest 363 418 15,100 -2,100 Descending Atlanta Center
08:52PM 35.7750 -80.4708 216° Southwest 352 405 13,100 -1,860 Descending Atlanta Center
08:53PM 35.7056 -80.5275 214° Southwest 325 374 11,600 -120 Descending Atlanta Center
08:53PM 35.6836 -80.5617 232° Southwest 329 379 13,000 -1,500 Climbing Atlanta Center
08:54PM 35.6603 -80.6189 243° Southwest 282 325 10,000 -3,180 Descending Atlanta Center
08:55PM 35.6144 -80.7050 237° Southwest 277 319 8,000 -1,920 Descending Atlanta Center
08:56PM 35.5747 -80.7781 236° Southwest 285 328 6,300 -1,740 Descending Atlanta Center
08:56PM 35.5547 -80.8044 227° Southwest 285 328 5,600 -1,620 Descending Atlanta Center
08:57PM 35.5225 -80.8517 230° Southwest 277 319 4,700 -900 Descending Atlanta Center
08:58PM 35.4694 -80.9022 218° Southwest 232 267 4,300 -720 Descending Atlanta Center
08:59PM 35.4161 -80.9347 206° Southwest 220 253 3,300 -660 Descending Atlanta Center
09:00PM 35.3644 -80.9572 200° South 177 204 3,000 -300 Descending Atlanta Center